20:42
Airports
History
Links
Donate
Help keep this website running!
PayPal
Bitcoin
This page is community maintained. The information is intended for PC simulator navigation or reference.
Always use approved charts for navigation.
RJTR
KASTNER AAF
KASTNER AAF (RJTR)
Sagamihara-shi, Kanagawa Prefecture, Japan (252)
(C)
Lat/Lng:35° 30' 49.73" N / 139° 23' 37.23" E
35.513815 / 139.393675
Elevation:360'ft / 110mMSL
ID / ICAO:RJTR
Runways:1
Longest:02-20
Asphalt 579m / 1,901ft
Controlled:Yes
METAR00:06 GMT 2017-09-22
Altimeter: 30.10
Visibility: 7.0 statute miles
Wind: 3 knots (from 030°)
Temp: 24°c / 75°f
Humidity: 64.9%

METAR: RJTR 220006Z 03003KT 7SM BKN030 OVC050 24/17 A3010 RMK WND/ALSTG ESTMD

(Powered by phpweather)
Airport Radio Frequencies
Tower: 122.5
Nearby VORs <50NM
Nearby NDBs
Runway 02 / 20
Dimensions:579.4 x 15.9m 1901' x 52'ft
Surface:Asphalt
Edge Lights:Medium intensity
Runway 02 [A]Runway 20 [B]
Heading:008°TH 188°TH
Lat:
Lng:
35° 30' 40.39"N
139° 23' 35.52"E
35° 30' 59.08"N
139° 23' 38.94"E
User Notes and Comments
35° 30' 49.73" N / 139° 23' 37.23" E
Distance To
Airport ID:
Nearby Airports
(C) ATSUGI NAF 5.2 NM
RJTA ( WX ) SE 142°
(C) Chofu 13.3 NM
RJTF ( WX ) NE 34°
(C) Tachikawa AB 13.6 NM
RJTC ( WX ) N
(C) YOKOTA AB 16.4 NM
RJTY ( WX ) N 351°
(C) Tokyo Haneda Intl 22.5 NM
RJTT ( WX ) E 84°
(C) IRUMA 22.7 NM
RJTJ ( WX ) N
(C) KISARAZU 30.1 NM
RJTK ( WX ) ESE 105°
VFR Chart
Flight Planning at SkyVector.com